Time;durP1;ratioP1;P1;durP2;ratioP2;P2;SDS_P1;SDS_P2;PMS_P1;PMS_P2;Temp;Humidity;BMP_temperature;BMP_pressure;BME280_temperature;BME280_humidity;BME280_pressure;Samples;Min_cycle;Max_cycle;Signal;HPM_P1;HPM_P2
2020/12/03 00:02:16;;;;;;;17.47;11.90;;;5.20;99.90;;;;;;5045247;28;20180;-72
2020/12/03 00:04:46;;;;;;;14.97;11.93;;;5.20;99.90;;;;;;5051581;28;20176;-72
2020/12/03 00:07:13;;;;;;;16.50;11.37;;;5.20;99.90;;;;;;5052086;28;20424;-72
2020/12/03 00:09:43;;;;;;;14.40;10.87;;;5.20;99.90;;;;;;5036494;28;20437;-72
2020/12/03 00:12:08;;;;;;;15.13;11.83;;;5.20;99.90;;;;;;5036146;28;20425;-71
2020/12/03 00:14:34;;;;;;;19.60;11.23;;;5.20;99.90;;;;;;5043330;28;20416;-72
2020/12/03 00:17:00;;;;;;;13.83;10.83;;;5.20;99.90;;;;;;5038987;28;20194;-72
2020/12/03 00:19:26;;;;;;;15.43;11.50;;;5.20;99.90;;;;;;5055160;28;20300;-72
2020/12/03 00:21:53;;;;;;;17.70;12.27;;;5.30;99.90;;;;;;5053522;28;20417;-72
2020/12/03 00:24:23;;;;;;;19.20;12.07;;;5.30;99.90;;;;;;5035779;28;20528;-72
2020/12/03 00:26:50;;;;;;;14.87;11.30;;;5.20;99.90;;;;;;5035890;28;20426;-71
2020/12/03 00:29:16;;;;;;;16.37;12.53;;;5.30;99.90;;;;;;5039825;28;20492;-72
2020/12/03 00:31:47;;;;;;;16.33;12.90;;;5.30;99.90;;;;;;5054997;28;20917;-73
2020/12/03 00:34:13;;;;;;;17.50;12.63;;;5.30;99.90;;;;;;5043227;28;20424;-72
2020/12/03 00:36:38;;;;;;;18.97;12.80;;;5.30;99.90;;;;;;5042202;28;20421;-72
2020/12/03 00:39:08;;;;;;;17.67;12.77;;;5.30;99.90;;;;;;5053925;28;20448;-72
2020/12/03 00:41:33;;;;;;;13.97;11.40;;;5.30;99.90;;;;;;5054506;28;20206;-72
2020/12/03 00:43:59;;;;;;;15.50;12.07;;;5.30;99.90;;;;;;5044872;28;20418;-71
2020/12/03 00:46:32;;;;;;;15.63;10.90;;;5.30;99.90;;;;;;5035236;28;20186;-71
2020/12/03 00:48:57;;;;;;;14.17;11.17;;;5.30;99.90;;;;;;5034933;28;20202;-72
2020/12/03 00:51:24;;;;;;;17.20;12.60;;;5.30;99.90;;;;;;5047463;28;20479;-72
2020/12/03 00:53:50;;;;;;;14.57;11.67;;;5.30;99.90;;;;;;5054333;28;20201;-72
2020/12/03 00:56:18;;;;;;;16.00;11.00;;;5.30;99.90;;;;;;5054359;28;20456;-72
2020/12/03 00:58:45;;;;;;;14.03;11.10;;;5.30;99.90;;;;;;5050603;28;20565;-72
2020/12/03 01:01:13;;;;;;;13.30;10.90;;;5.30;99.90;;;;;;5053767;28;21133;-72
2020/12/03 01:03:39;;;;;;;17.83;12.00;;;5.30;99.90;;;;;;5052672;28;20459;-72
2020/12/03 01:06:05;;;;;;;18.43;12.53;;;5.30;99.90;;;;;;5045203;28;20904;-72
2020/12/03 01:08:30;;;;;;;16.23;12.90;;;5.30;99.90;;;;;;5036696;28;20207;-71
2020/12/03 01:10:56;;;;;;;14.93;11.70;;;5.30;99.90;;;;;;5036688;28;20434;-72
2020/12/03 01:13:22;;;;;;;13.63;10.90;;;5.30;99.90;;;;;;5055798;28;20178;-72
2020/12/03 01:15:48;;;;;;;16.67;12.27;;;5.30;99.90;;;;;;5055698;28;20621;-72
2020/12/03 01:18:14;;;;;;;16.63;11.93;;;5.30;99.90;;;;;;5050561;28;20467;-72
2020/12/03 01:20:40;;;;;;;18.47;12.37;;;5.30;99.90;;;;;;5033629;28;20290;-72
2020/12/03 01:23:05;;;;;;;13.70;11.07;;;5.20;99.90;;;;;;5035189;28;20873;-72
2020/12/03 01:25:31;;;;;;;16.00;11.67;;;5.30;99.90;;;;;;5038504;28;20187;-72
2020/12/03 01:27:56;;;;;;;16.30;12.57;;;5.30;99.90;;;;;;5054081;28;20180;-72
2020/12/03 01:30:22;;;;;;;18.63;11.63;;;5.20;99.90;;;;;;5053594;28;20208;-72
2020/12/03 01:32:48;;;;;;;15.23;11.90;;;5.30;99.90;;;;;;5048739;28;20183;-72
2020/12/03 01:35:15;;;;;;;16.53;12.23;;;5.20;99.90;;;;;;5034984;28;20209;-72
2020/12/03 01:37:42;;;;;;;13.60;10.40;;;5.20;99.90;;;;;;5034752;28;20274;-72
2020/12/03 01:40:11;;;;;;;14.97;11.10;;;5.20;99.90;;;;;;5041932;28;20491;-72
2020/12/03 01:42:41;;;;;;;14.70;11.23;;;5.30;99.90;;;;;;5057705;28;20456;-71
2020/12/03 01:45:44;;;;;;;15.40;10.93;;;5.30;99.90;;;;;;5053720;28;20944;-72
2020/12/03 01:48:33;;;;;;;16.30;11.33;;;5.30;99.90;;;;;;5037890;28;20783;-72
2020/12/03 01:51:02;;;;;;;13.73;10.70;;;5.20;99.90;;;;;;5034612;28;20418;-72
2020/12/03 01:53:28;;;;;;;16.37;10.40;;;5.20;99.90;;;;;;5036335;28;20458;-72
2020/12/03 01:55:55;;;;;;;15.40;10.83;;;5.30;99.90;;;;;;5053755;28;20785;-72
2020/12/03 01:58:43;;;;;;;12.97;10.50;;;5.30;99.90;;;;;;5052971;28;20860;-72
2020/12/03 02:01:10;;;;;;;15.80;10.90;;;5.30;99.90;;;;;;5046346;28;20465;-72
2020/12/03 02:03:45;;;;;;;17.20;11.93;;;5.30;99.90;;;;;;5034224;28;20419;-72
2020/12/03 02:06:11;;;;;;;14.93;11.33;;;5.30;99.90;;;;;;5034674;28;21007;-72
2020/12/03 02:08:36;;;;;;;15.10;10.77;;;5.20;99.90;;;;;;5044349;28;20475;-72
2020/12/03 02:11:02;;;;;;;12.30;10.50;;;5.30;99.90;;;;;;5053527;28;20186;-72
2020/12/03 02:13:27;;;;;;;13.60;10.47;;;5.20;99.90;;;;;;5053277;28;20248;-72
2020/12/03 02:15:53;;;;;;;12.10;10.03;;;5.20;99.90;;;;;;5040992;28;20178;-72
2020/12/03 02:18:18;;;;;;;14.00;10.70;;;5.20;99.90;;;;;;5033762;28;20217;-72
2020/12/03 02:20:44;;;;;;;13.17;10.63;;;5.30;99.90;;;;;;5042081;28;20230;-72
2020/12/03 02:23:12;;;;;;;16.83;11.63;;;5.30;99.90;;;;;;5048153;28;20178;-72
2020/12/03 02:25:38;;;;;;;14.00;11.30;;;5.30;99.90;;;;;;5050838;28;20183;-72
2020/12/03 02:28:05;;;;;;;14.57;11.60;;;5.30;99.90;;;;;;5033531;28;20427;-72
2020/12/03 02:30:31;;;;;;;15.10;10.63;;;5.40;99.90;;;;;;5049009;28;20563;-72
2020/12/03 02:32:57;;;;;;;15.10;10.87;;;5.30;99.90;;;;;;5052845;28;20424;-72
2020/12/03 02:35:22;;;;;;;12.47;10.37;;;5.30;99.90;;;;;;5052867;28;20205;-72
2020/12/03 02:37:48;;;;;;;15.73;11.33;;;5.40;99.90;;;;;;5033934;28;20756;-72
2020/12/03 02:40:13;;;;;;;13.47;10.80;;;5.30;99.90;;;;;;5033341;28;20219;-72
2020/12/03 02:42:39;;;;;;;13.17;10.07;;;5.30;99.90;;;;;;5034622;28;20507;-72
2020/12/03 02:45:05;;;;;;;14.87;9.83;;;5.30;99.90;;;;;;5052944;28;20194;-72
2020/12/03 02:47:31;;;;;;;12.27;10.40;;;5.30;99.90;;;;;;5052372;28;20543;-72
2020/12/03 02:49:56;;;;;;;12.90;9.30;;;5.30;99.90;;;;;;5049501;28;20503;-72
2020/12/03 02:52:23;;;;;;;13.37;9.07;;;5.30;99.90;;;;;;5033935;28;20582;-72
2020/12/03 02:54:50;;;;;;;10.90;8.67;;;5.30;99.90;;;;;;5034351;28;20207;-72
2020/12/03 02:57:16;;;;;;;12.27;10.47;;;5.30;99.90;;;;;;5040254;28;20465;-72
2020/12/03 02:59:42;;;;;;;12.57;9.20;;;5.30;99.90;;;;;;5048302;28;20516;-72
2020/12/03 03:02:08;;;;;;;12.90;9.50;;;5.30;99.90;;;;;;5033769;28;20448;-72
2020/12/03 03:04:34;;;;;;;13.37;9.70;;;5.30;99.90;;;;;;5034670;28;20414;-72
2020/12/03 03:07:00;;;;;;;15.10;11.07;;;5.30;99.90;;;;;;5033249;28;20452;-72
2020/12/03 03:09:26;;;;;;;14.13;9.90;;;5.30;99.90;;;;;;5033120;28;21053;-72
2020/12/03 03:11:52;;;;;;;14.20;10.27;;;5.30;99.90;;;;;;5041131;28;20176;-72
2020/12/03 03:14:18;;;;;;;14.00;10.73;;;5.30;99.90;;;;;;5033315;28;20906;-72
2020/12/03 03:16:44;;;;;;;12.03;9.40;;;5.30;99.90;;;;;;5033100;28;20192;-72
2020/12/03 03:19:10;;;;;;;15.50;9.40;;;5.30;99.90;;;;;;5044025;28;20446;-72
2020/12/03 03:21:36;;;;;;;13.83;11.00;;;5.30;99.90;;;;;;5052460;28;20487;-72
2020/12/03 03:24:01;;;;;;;15.03;9.53;;;5.20;99.90;;;;;;5051959;28;20201;-72
2020/12/03 03:26:27;;;;;;;12.80;9.80;;;5.20;99.90;;;;;;5038806;28;20927;-72
2020/12/03 03:28:53;;;;;;;13.80;9.57;;;5.20;99.90;;;;;;5032762;28;20687;-72
2020/12/03 03:31:19;;;;;;;12.30;10.17;;;5.20;99.90;;;;;;5032878;28;20255;-72
2020/12/03 03:33:46;;;;;;;16.37;10.10;;;5.20;99.90;;;;;;5048768;28;20747;-72
2020/12/03 03:36:12;;;;;;;11.40;9.30;;;5.20;99.90;;;;;;5044232;28;20425;-72
2020/12/03 03:38:38;;;;;;;12.53;9.77;;;5.20;99.90;;;;;;5051988;28;20852;-72
2020/12/03 03:41:04;;;;;;;11.47;8.50;;;5.20;99.90;;;;;;5034078;28;20457;-72
2020/12/03 03:43:29;;;;;;;13.03;9.60;;;5.20;99.90;;;;;;5031436;28;20186;-72
2020/12/03 03:45:55;;;;;;;12.57;9.37;;;5.20;99.90;;;;;;5036735;28;20953;-72
2020/12/03 03:48:21;;;;;;;14.67;9.53;;;5.20;99.90;;;;;;5056031;28;20166;-72
2020/12/03 03:50:47;;;;;;;14.67;10.43;;;5.20;99.90;;;;;;5048521;28;20188;-72
2020/12/03 03:53:12;;;;;;;14.50;9.70;;;5.20;99.90;;;;;;5056355;28;20417;-72
2020/12/03 03:55:39;;;;;;;12.63;9.30;;;5.20;99.90;;;;;;5056294;28;20206;-72
2020/12/03 03:58:08;;;;;;;17.90;10.30;;;5.20;99.90;;;;;;5038512;28;20584;-72
2020/12/03 04:00:44;;;;;;;12.00;8.53;;;5.20;99.90;;;;;;5036828;28;20468;-72
2020/12/03 04:03:13;;;;;;;12.50;9.87;;;5.20;99.90;;;;;;5038294;28;20914;-72
2020/12/03 04:05:49;;;;;;;13.73;9.23;;;5.20;99.90;;;;;;5056212;28;20420;-72
2020/12/03 04:08:17;;;;;;;12.23;10.43;;;5.30;99.90;;;;;;5054347;28;20759;-72
2020/12/03 04:10:44;;;;;;;13.03;10.40;;;5.30;99.90;;;;;;5050296;28;20941;-72
2020/12/03 04:13:09;;;;;;;14.27;9.90;;;5.30;99.90;;;;;;5036595;28;20487;-72
2020/12/03 04:15:36;;;;;;;12.87;11.10;;;5.20;99.90;;;;;;5036807;28;20425;-72
2020/12/03 04:18:01;;;;;;;13.20;9.73;;;5.20;99.90;;;;;;5043720;28;20613;-72
2020/12/03 04:20:27;;;;;;;11.23;9.73;;;5.30;99.90;;;;;;5044636;28;20468;-72
2020/12/03 04:22:52;;;;;;;11.40;9.20;;;5.30;99.90;;;;;;5036423;28;20671;-70
2020/12/03 04:25:18;;;;;;;12.03;9.00;;;5.30;99.90;;;;;;5045988;28;20186;-71
2020/12/03 04:27:44;;;;;;;11.43;9.50;;;5.30;99.90;;;;;;5055523;28;20184;-71
2020/12/03 04:30:10;;;;;;;11.30;9.07;;;5.30;99.90;;;;;;5055307;28;20218;-72
2020/12/03 04:32:36;;;;;;;11.27;8.83;;;5.30;99.90;;;;;;5043848;28;20175;-71
2020/12/03 04:35:03;;;;;;;8.80;7.53;;;5.40;99.90;;;;;;5035289;28;20425;-72
2020/12/03 04:37:28;;;;;;;10.67;8.33;;;5.40;99.90;;;;;;5036018;28;20465;-72
2020/12/03 04:39:54;;;;;;;11.40;8.67;;;5.30;99.90;;;;;;5049833;28;20569;-71
2020/12/03 04:42:37;;;;;;;10.97;7.90;;;5.30;99.90;;;;;;5053923;28;20193;-71
2020/12/03 04:45:35;;;;;;;10.77;8.43;;;5.30;99.90;;;;;;5036033;28;20186;-71
2020/12/03 04:48:14;;;;;;;9.67;8.13;;;5.30;99.90;;;;;;5048456;28;20445;-72
2020/12/03 04:51:02;;;;;;;11.27;8.23;;;5.30;99.90;;;;;;5053778;28;20455;-71
2020/12/03 04:53:54;;;;;;;8.87;7.70;;;5.40;99.90;;;;;;5053174;28;20486;-72
2020/12/03 04:56:40;;;;;;;10.03;7.40;;;5.30;99.90;;;;;;5051809;28;20753;-71
2020/12/03 04:59:27;;;;;;;11.67;8.90;;;5.30;99.90;;;;;;5052990;28;20559;-71
2020/12/03 05:01:58;;;;;;;10.03;7.73;;;5.30;99.90;;;;;;5053171;28;20464;-71
2020/12/03 05:04:29;;;;;;;13.40;8.40;;;5.30;99.90;;;;;;5053473;28;20421;-72
2020/12/03 05:07:01;;;;;;;11.43;8.30;;;5.30;99.90;;;;;;5053207;28;20434;-71
2020/12/03 05:09:48;;;;;;;9.93;8.00;;;5.30;99.90;;;;;;5052869;28;20478;-72
2020/12/03 05:12:20;;;;;;;9.47;8.00;;;5.30;99.90;;;;;;5053009;28;20788;-71
2020/12/03 05:14:52;;;;;;;10.07;8.00;;;5.30;99.90;;;;;;5053169;28;20415;-72
2020/12/03 05:17:42;;;;;;;9.67;7.60;;;5.30;99.90;;;;;;5054949;28;20984;-70
2020/12/03 05:20:28;;;;;;;11.83;8.97;;;5.30;99.90;;;;;;5053907;28;20468;-72
2020/12/03 05:23:33;;;;;;;11.37;8.80;;;5.30;99.90;;;;;;5047576;28;20777;-72
2020/12/03 05:26:01;;;;;;;10.77;8.10;;;5.30;99.90;;;;;;5050511;28;20406;-72
2020/12/03 05:28:36;;;;;;;10.30;8.40;;;5.30;99.90;;;;;;5034890;28;20775;-72
2020/12/03 05:31:12;;;;;;;11.63;9.30;;;5.30;99.90;;;;;;5035221;28;20437;-72
2020/12/03 05:33:39;;;;;;;10.77;8.60;;;5.40;99.90;;;;;;5044331;28;20413;-71
2020/12/03 05:36:21;;;;;;;12.63;10.00;;;5.30;99.90;;;;;;5054559;28;20770;-72
2020/12/03 05:38:46;;;;;;;10.90;8.37;;;5.30;99.90;;;;;;5054646;28;20964;-71
2020/12/03 05:41:15;;;;;;;13.90;9.30;;;5.30;99.90;;;;;;5040814;28;20540;-72
2020/12/03 05:43:40;;;;;;;10.97;8.30;;;5.30;99.90;;;;;;5034805;28;20694;-72
2020/12/03 05:46:07;;;;;;;13.10;10.00;;;5.40;99.90;;;;;;5034981;28;20460;-73
2020/12/03 05:48:32;;;;;;;13.70;10.50;;;5.40;99.90;;;;;;5049831;28;20209;-73
2020/12/03 05:50:58;;;;;;;10.70;8.13;;;5.40;99.90;;;;;;5054240;28;20451;-72
2020/12/03 05:53:27;;;;;;;11.27;9.17;;;5.40;99.90;;;;;;5054097;28;20224;-72
2020/12/03 05:56:12;;;;;;;12.60;8.87;;;5.30;99.90;;;;;;5035716;28;20316;-72
2020/12/03 05:58:37;;;;;;;14.93;10.03;;;5.30;99.90;;;;;;5034271;28;20477;-72
2020/12/03 06:01:15;;;;;;;13.17;9.60;;;5.30;99.90;;;;;;5037574;28;20487;-72
2020/12/03 06:04:06;;;;;;;10.93;8.43;;;5.40;99.90;;;;;;5052192;28;20170;-72
2020/12/03 06:06:55;;;;;;;11.13;8.63;;;5.40;99.90;;;;;;5053434;28;20965;-71
2020/12/03 06:09:52;;;;;;;13.30;10.13;;;5.30;99.90;;;;;;5040137;28;20438;-71
2020/12/03 06:12:50;;;;;;;12.17;9.57;;;5.30;99.90;;;;;;5047280;28;20431;-72
2020/12/03 06:15:21;;;;;;;12.00;9.10;;;5.30;99.90;;;;;;5049309;28;20413;-72
2020/12/03 06:18:19;;;;;;;15.50;9.90;;;5.30;99.90;;;;;;5034163;28;20508;-71
2020/12/03 06:21:19;;;;;;;13.80;8.83;;;5.30;99.90;;;;;;5049835;28;20497;-71
2020/12/03 06:24:03;;;;;;;12.83;9.10;;;5.20;99.90;;;;;;5045430;28;20417;-71
2020/12/03 06:26:43;;;;;;;13.53;9.63;;;5.20;99.90;;;;;;5051735;28;20948;-72
2020/12/03 06:29:08;;;;;;;12.43;9.80;;;5.20;99.90;;;;;;5030808;28;20483;-72
2020/12/03 06:32:03;;;;;;;14.50;10.63;;;5.20;99.90;;;;;;5049741;28;20449;-72
2020/12/03 06:34:41;;;;;;;11.90;9.27;;;5.20;99.90;;;;;;5052762;28;20527;-72
2020/12/03 06:37:18;;;;;;;13.93;9.93;;;5.20;99.90;;;;;;5046738;28;20472;-71
2020/12/03 06:39:57;;;;;;;17.27;11.40;;;5.20;99.90;;;;;;5054237;28;20444;-72
2020/12/03 06:42:37;;;;;;;12.30;9.60;;;5.20;99.90;;;;;;5063489;28;20521;-72
2020/12/03 06:45:09;;;;;;;13.87;10.27;;;5.10;99.90;;;;;;5065132;28;20421;-71
2020/12/03 06:47:55;;;;;;;13.47;10.13;;;5.10;99.90;;;;;;5075826;28;20967;-71
2020/12/03 06:50:40;;;;;;;14.30;10.40;;;5.10;99.90;;;;;;5055105;28;20479;-72
2020/12/03 06:53:36;;;;;;;14.50;10.03;;;5.10;99.90;;;;;;5051527;28;20444;-72
2020/12/03 06:56:27;;;;;;;14.83;9.57;;;5.10;99.90;;;;;;5057799;28;20770;-72
2020/12/03 06:59:40;;;;;;;17.27;10.23;;;5.20;99.90;;;;;;5056107;28;20913;-71
2020/12/03 07:02:33;;;;;;;15.40;10.60;;;5.20;99.90;;;;;;5044953;28;20440;-72
2020/12/03 07:05:46;;;;;;;13.50;9.73;;;5.20;99.90;;;;;;5044173;28;20942;-73
2020/12/03 07:08:50;;;;;;;13.20;9.93;;;5.10;99.90;;;;;;5005392;28;21039;-73
2020/12/03 07:11:45;;;;;;;14.50;9.77;;;5.10;99.90;;;;;;5047068;28;20487;-73
2020/12/03 07:14:33;;;;;;;12.80;9.47;;;5.10;99.90;;;;;;4995152;28;20439;-72
2020/12/03 07:17:46;;;;;;;13.70;9.80;;;5.00;99.90;;;;;;5042868;28;20497;-72
2020/12/03 07:20:24;;;;;;;15.20;10.00;;;5.00;99.90;;;;;;5029447;28;20585;-72
2020/12/03 07:23:02;;;;;;;15.43;10.83;;;5.00;99.90;;;;;;5042096;28;20459;-73
2020/12/03 07:25:29;;;;;;;14.30;10.83;;;5.00;99.90;;;;;;5043216;28;20537;-73
2020/12/03 07:28:03;;;;;;;17.30;11.60;;;5.00;99.90;;;;;;5042498;28;20421;-72
2020/12/03 07:30:44;;;;;;;13.97;10.23;;;5.10;99.90;;;;;;5050002;28;20479;-72
2020/12/03 07:33:35;;;;;;;16.13;10.07;;;5.10;99.90;;;;;;5035745;28;20587;-72
2020/12/03 07:36:23;;;;;;;16.97;11.07;;;5.10;99.90;;;;;;5047426;28;20517;-72
2020/12/03 07:38:58;;;;;;;14.07;10.60;;;5.20;99.90;;;;;;5051524;28;21220;-72
2020/12/03 07:41:27;;;;;;;13.97;9.90;;;5.20;99.90;;;;;;5043466;28;20567;-72
2020/12/03 07:44:16;;;;;;;14.20;10.20;;;5.20;99.90;;;;;;5057265;28;20768;-72
2020/12/03 07:46:42;;;;;;;14.30;10.53;;;5.20;99.90;;;;;;5054655;28;20499;-72
2020/12/03 07:49:09;;;;;;;13.53;9.60;;;5.20;99.90;;;;;;5058423;28;20444;-73
2020/12/03 07:51:35;;;;;;;13.07;9.47;;;5.20;99.90;;;;;;5052145;28;20170;-72
2020/12/03 07:54:16;;;;;;;13.90;10.23;;;5.20;99.90;;;;;;5054948;28;20420;-72
2020/12/03 07:56:48;;;;;;;12.13;9.10;;;5.20;99.90;;;;;;5056337;28;20494;-71
2020/12/03 07:59:23;;;;;;;15.20;10.17;;;5.20;99.90;;;;;;5059541;28;20456;-72
2020/12/03 08:01:50;;;;;;;13.10;10.00;;;5.20;99.90;;;;;;5050451;28;20475;-72
2020/12/03 08:04:25;;;;;;;14.37;10.10;;;5.20;99.90;;;;;;5056244;28;20433;-72
2020/12/03 08:07:00;;;;;;;13.70;9.80;;;5.20;99.90;;;;;;5053504;28;20423;-72
2020/12/03 08:09:40;;;;;;;15.63;11.10;;;5.20;99.90;;;;;;5042517;28;20799;-71
2020/12/03 08:12:15;;;;;;;14.57;9.93;;;5.10;99.90;;;;;;5058303;28;20478;-74
2020/12/03 08:14:42;;;;;;;11.73;9.10;;;5.20;99.90;;;;;;5057407;28;20467;-72
2020/12/03 08:17:16;;;;;;;12.33;9.70;;;5.10;99.90;;;;;;5055400;28;20423;-71
2020/12/03 08:19:44;;;;;;;15.70;9.97;;;5.10;99.90;;;;;;5057862;28;21918;-71
2020/12/03 08:22:27;;;;;;;11.97;9.40;;;5.10;99.90;;;;;;5043504;28;20463;-71
2020/12/03 08:25:09;;;;;;;12.93;9.50;;;5.10;99.90;;;;;;5059392;28;20493;-72
2020/12/03 08:27:35;;;;;;;13.10;9.40;;;5.20;99.90;;;;;;5051241;28;20422;-71
2020/12/03 08:30:00;;;;;;;15.40;9.43;;;5.20;99.90;;;;;;5048664;28;20812;-72
2020/12/03 08:32:26;;;;;;;11.20;8.97;;;5.20;99.90;;;;;;5050647;28;20632;-73
2020/12/03 08:34:52;;;;;;;13.80;10.37;;;5.20;99.90;;;;;;5045876;28;20193;-72
2020/12/03 08:37:22;;;;;;;13.53;10.37;;;5.20;99.90;;;;;;5039216;28;20675;-73
2020/12/03 08:39:54;;;;;;;12.00;9.77;;;5.30;99.90;;;;;;5034767;28;20479;-73
2020/12/03 08:42:20;;;;;;;11.93;9.43;;;5.30;99.90;;;;;;5050216;28;20489;-73
2020/12/03 08:44:47;;;;;;;15.20;9.40;;;5.20;99.90;;;;;;5035168;28;20505;-73
2020/12/03 08:47:44;;;;;;;13.40;8.60;;;5.20;99.90;;;;;;5033633;28;20418;-73
2020/12/03 08:50:14;;;;;;;13.50;9.57;;;5.20;99.90;;;;;;5042037;28;20529;-74
2020/12/03 08:52:40;;;;;;;14.10;9.17;;;5.30;99.90;;;;;;5035974;28;20575;-74
2020/12/03 08:55:06;;;;;;;13.33;9.33;;;5.30;99.90;;;;;;5049525;28;20875;-73
2020/12/03 08:57:36;;;;;;;13.20;9.30;;;5.20;99.90;;;;;;5049836;28;20245;-74
2020/12/03 09:00:05;;;;;;;12.23;9.00;;;5.20;99.90;;;;;;5054519;28;20453;-73
2020/12/03 09:02:31;;;;;;;9.73;8.60;;;5.30;99.90;;;;;;5056123;28;20456;-74
2020/12/03 09:05:01;;;;;;;13.43;8.80;;;5.30;99.90;;;;;;5053409;28;20491;-73
2020/12/03 09:07:32;;;;;;;12.27;8.50;;;5.20;99.90;;;;;;5035510;28;20424;-73
2020/12/03 09:10:02;;;;;;;12.60;8.93;;;5.20;99.90;;;;;;5054734;28;20441;-74
2020/12/03 09:12:30;;;;;;;10.70;8.20;;;5.30;99.90;;;;;;5055173;28;20416;-74
2020/12/03 09:15:00;;;;;;;10.40;8.60;;;5.30;99.90;;;;;;5053039;28;20985;-74
2020/12/03 09:17:27;;;;;;;11.80;9.30;;;5.30;99.90;;;;;;5053437;28;20443;-74
2020/12/03 09:20:02;;;;;;;12.13;9.20;;;5.30;99.90;;;;;;5037045;28;20441;-74
2020/12/03 09:22:28;;;;;;;10.90;9.27;;;5.30;99.90;;;;;;5035244;28;20442;-74
2020/12/03 09:24:56;;;;;;;11.30;9.20;;;5.30;99.90;;;;;;5035976;28;20501;-74
2020/12/03 09:27:23;;;;;;;11.30;9.20;;;5.40;99.90;;;;;;5055112;28;20424;-74
2020/12/03 09:29:50;;;;;;;10.70;8.30;;;5.40;99.90;;;;;;5054133;28;20436;-73
2020/12/03 09:32:18;;;;;;;10.63;7.93;;;5.30;99.90;;;;;;5050581;28;20756;-73
2020/12/03 09:34:46;;;;;;;13.40;9.20;;;5.40;99.90;;;;;;5035160;28;20414;-74
2020/12/03 09:37:11;;;;;;;14.40;9.60;;;5.40;99.90;;;;;;5035032;28;20511;-74
2020/12/03 09:39:38;;;;;;;10.80;8.20;;;5.40;99.90;;;;;;5041169;28;20478;-74
2020/12/03 09:42:10;;;;;;;10.87;8.37;;;5.40;99.90;;;;;;5057229;28;20294;-74
2020/12/03 09:44:36;;;;;;;10.77;8.43;;;5.40;99.90;;;;;;5049597;28;20517;-75
2020/12/03 09:47:11;;;;;;;9.17;7.93;;;5.40;99.90;;;;;;5043856;28;20430;-74
2020/12/03 09:49:41;;;;;;;13.10;10.50;;;5.40;99.90;;;;;;5034917;28;20480;-74
2020/12/03 09:52:10;;;;;;;12.30;9.43;;;5.50;99.90;;;;;;5036448;28;20418;-74
2020/12/03 09:54:36;;;;;;;12.10;9.43;;;5.50;99.90;;;;;;5054231;28;20777;-73
2020/12/03 09:57:02;;;;;;;9.17;8.20;;;5.50;99.90;;;;;;5052585;28;20425;-74
2020/12/03 09:59:27;;;;;;;13.10;9.30;;;5.60;99.90;;;;;;5034357;28;20545;-74
2020/12/03 10:01:59;;;;;;;10.50;8.40;;;5.60;99.90;;;;;;5034445;28;20532;-74
2020/12/03 10:05:02;;;;;;;11.33;9.47;;;5.60;99.90;;;;;;5046189;28;20189;-74
2020/12/03 10:07:43;;;;;;;12.60;9.17;;;5.60;99.90;;;;;;5054312;28;20420;-74
2020/12/03 10:10:38;;;;;;;11.93;9.63;;;5.60;99.90;;;;;;5052978;28;20436;-74
2020/12/03 10:13:06;;;;;;;13.07;9.63;;;5.60;99.90;;;;;;5034134;28;20438;-74
2020/12/03 10:15:59;;;;;;;12.20;9.17;;;5.60;99.90;;;;;;5033995;28;20881;-74
2020/12/03 10:18:38;;;;;;;14.27;10.30;;;5.70;99.90;;;;;;5044752;28;20467;-75
2020/12/03 10:21:04;;;;;;;12.90;9.20;;;5.70;99.90;;;;;;5052467;28;20591;-75
2020/12/03 10:23:41;;;;;;;12.97;9.20;;;5.70;99.90;;;;;;5045723;28;20421;-74
2020/12/03 10:26:16;;;;;;;11.57;7.97;;;5.70;99.90;;;;;;5038412;28;20410;-75
2020/12/03 10:28:49;;;;;;;13.43;9.30;;;5.80;99.90;;;;;;5053652;28;20436;-74
2020/12/03 10:31:15;;;;;;;11.67;9.10;;;5.80;99.90;;;;;;5036449;28;20590;-73
2020/12/03 10:33:46;;;;;;;14.60;9.80;;;5.90;99.90;;;;;;5040025;28;20416;-75
2020/12/03 10:36:32;;;;;;;12.73;8.50;;;5.90;99.90;;;;;;5056230;28;20438;-74
2020/12/03 10:39:00;;;;;;;9.77;7.73;;;5.90;99.90;;;;;;5056038;28;20472;-74
2020/12/03 10:41:33;;;;;;;11.00;8.87;;;5.90;99.90;;;;;;5054463;28;20540;-74
2020/12/03 10:44:02;;;;;;;13.97;8.97;;;6.00;99.90;;;;;;5038613;28;20442;-74
2020/12/03 10:46:32;;;;;;;10.90;8.60;;;6.00;99.90;;;;;;5041852;28;20427;-75
2020/12/03 10:48:59;;;;;;;12.03;8.90;;;6.00;99.90;;;;;;5033525;28;20528;-75
2020/12/03 10:51:25;;;;;;;11.33;8.90;;;6.00;99.90;;;;;;5033432;28;20478;-75
2020/12/03 10:53:52;;;;;;;11.10;8.87;;;6.10;99.90;;;;;;5045493;28;20520;-75
2020/12/03 10:56:26;;;;;;;12.20;9.27;;;6.10;99.90;;;;;;5052266;28;20417;-75
2020/12/03 10:59:17;;;;;;;11.83;9.03;;;6.10;99.90;;;;;;5044556;28;20796;-74
2020/12/03 11:01:43;;;;;;;10.67;8.80;;;6.10;99.90;;;;;;5052996;28;20971;-74
2020/12/03 11:04:10;;;;;;;11.93;9.00;;;6.10;99.90;;;;;;5052792;28;20447;-74
2020/12/03 11:06:36;;;;;;;10.50;8.37;;;6.10;99.90;;;;;;5033632;28;20765;-75
2020/12/03 11:09:04;;;;;;;12.67;8.20;;;6.00;99.90;;;;;;5032943;28;20460;-74
2020/12/03 11:11:37;;;;;;;10.63;8.43;;;6.00;99.90;;;;;;5033925;28;20532;-74
2020/12/03 11:14:09;;;;;;;8.37;7.43;;;6.10;99.90;;;;;;5052267;28;20500;-74
2020/12/03 11:16:38;;;;;;;12.10;9.27;;;6.10;99.90;;;;;;5035842;28;20426;-75
2020/12/03 11:19:10;;;;;;;11.77;9.07;;;6.10;99.90;;;;;;5045960;28;21000;-74
2020/12/03 11:21:39;;;;;;;12.70;8.73;;;6.20;99.90;;;;;;5032950;28;20544;-74
2020/12/03 11:24:26;;;;;;;10.47;8.87;;;6.20;99.90;;;;;;5033381;28;20429;-74
2020/12/03 11:26:53;;;;;;;12.87;7.97;;;6.20;99.90;;;;;;5043813;28;20412;-74
2020/12/03 11:29:19;;;;;;;10.90;8.00;;;6.20;99.90;;;;;;5050603;28;20454;-74
2020/12/03 11:31:45;;;;;;;8.63;7.27;;;6.30;99.90;;;;;;5051284;28;20427;-75
2020/12/03 11:34:11;;;;;;;11.07;8.40;;;6.40;99.90;;;;;;5038931;28;20273;-73
2020/12/03 11:36:44;;;;;;;9.90;7.40;;;6.30;99.90;;;;;;5031150;28;20422;-75
2020/12/03 11:39:10;;;;;;;9.93;8.53;;;6.30;99.90;;;;;;5030975;28;20441;-75
2020/12/03 11:49:37;;;;;;;9.90;7.97;;;6.40;99.90;;;;;;5052370;28;20693;-74
2020/12/03 11:52:13;;;;;;;10.83;7.80;;;6.40;99.90;;;;;;5051783;28;20478;-74
2020/12/03 11:54:39;;;;;;;12.43;9.03;;;6.40;99.90;;;;;;5043971;28;20251;-74
2020/12/03 11:57:05;;;;;;;9.80;8.13;;;6.40;99.90;;;;;;5052038;28;20418;-73
2020/12/03 11:59:34;;;;;;;11.70;8.10;;;6.40;99.90;;;;;;5051574;28;20483;-73
2020/12/03 12:02:01;;;;;;;11.00;7.50;;;6.40;99.90;;;;;;5044424;28;20208;-73
2020/12/03 12:04:34;;;;;;;8.63;7.53;;;6.40;99.90;;;;;;5050757;28;20421;-73
2020/12/03 12:07:10;;;;;;;9.07;8.03;;;6.40;99.90;;;;;;5045064;28;20424;-73
2020/12/03 12:12:01;;;;;;;12.07;8.20;;;6.30;99.90;;;;;;5055682;28;20455;-75
2020/12/03 12:14:27;;;;;;;10.90;7.80;;;6.30;99.90;;;;;;5049649;28;20179;-74
2020/12/03 12:16:53;;;;;;;10.80;8.13;;;6.30;99.90;;;;;;5053248;28;20174;-74
2020/12/03 12:19:19;;;;;;;10.47;7.30;;;6.20;99.90;;;;;;5055559;28;20193;-74
2020/12/03 12:21:45;;;;;;;11.23;7.60;;;6.20;99.90;;;;;;5056706;28;20436;-74
2020/12/03 12:24:11;;;;;;;8.13;7.20;;;6.20;99.90;;;;;;5040034;28;20440;-74
2020/12/03 12:26:36;;;;;;;9.00;7.37;;;6.20;99.90;;;;;;5056313;28;20173;-74
2020/12/03 12:29:02;;;;;;;10.27;7.57;;;6.20;99.90;;;;;;5054066;28;20213;-73
2020/12/03 12:31:27;;;;;;;9.60;8.13;;;6.20;99.90;;;;;;5036989;28;20656;-74
2020/12/03 12:33:53;;;;;;;9.77;8.20;;;6.20;99.90;;;;;;5046377;28;20596;-75
2020/12/03 12:36:18;;;;;;;9.00;7.53;;;6.30;99.90;;;;;;5048203;28;20174;-75
2020/12/03 12:38:44;;;;;;;9.90;7.53;;;6.20;99.90;;;;;;5057349;28;20239;-74
2020/12/03 12:41:09;;;;;;;8.50;6.67;;;6.30;99.90;;;;;;5048205;28;20214;-74
2020/12/03 12:43:35;;;;;;;11.27;8.17;;;6.30;99.90;;;;;;5049274;28;20575;-74
2020/12/03 12:46:01;;;;;;;9.07;7.40;;;6.30;99.90;;;;;;5038468;28;20170;-75
2020/12/03 12:48:26;;;;;;;9.53;7.23;;;6.30;99.90;;;;;;5040021;28;20262;-76
2020/12/03 12:50:52;;;;;;;10.80;8.23;;;6.30;99.90;;;;;;5048426;28;20250;-76
2020/12/03 12:53:18;;;;;;;9.40;7.40;;;6.30;99.90;;;;;;5040219;28;20209;-75
2020/12/03 12:55:43;;;;;;;11.10;7.23;;;6.20;99.90;;;;;;5035468;28;20174;-74
2020/12/03 12:58:09;;;;;;;11.30;7.30;;;6.20;99.90;;;;;;5036349;28;20623;-74
2020/12/03 13:00:34;;;;;;;9.80;7.10;;;6.20;99.90;;;;;;5036025;28;20229;-73
2020/12/03 13:03:00;;;;;;;10.57;7.90;;;6.20;99.90;;;;;;5051928;28;20185;-74
2020/12/03 13:05:25;;;;;;;8.73;6.90;;;6.20;99.90;;;;;;5043597;28;20179;-74
2020/12/03 13:07:51;;;;;;;8.57;6.90;;;6.20;99.90;;;;;;5062350;28;20276;-74
2020/12/03 13:10:18;;;;;;;9.53;7.50;;;6.10;99.90;;;;;;5051477;28;20207;-74
2020/12/03 13:12:44;;;;;;;7.87;6.27;;;6.20;99.90;;;;;;5045517;28;20261;-75
2020/12/03 13:15:09;;;;;;;8.30;6.67;;;6.20;99.90;;;;;;5042122;28;20424;-73
2020/12/03 13:17:35;;;;;;;10.80;7.70;;;6.20;99.90;;;;;;5053306;28;20424;-74
2020/12/03 13:20:00;;;;;;;9.13;6.90;;;6.20;99.90;;;;;;5039474;28;20328;-74